Marin Sunshine — WDE5919 — position and weather

sailwx.info

Track history (hours):
 
Tides and Currents Weather Stations Pressure Air Temp Water Temp Dewpoint Dewpoint Depression Visibility Wind Speed Wind Dir Waves Ship Positions

Marin Sunshine

Owner: Marine Express, alameda, CA. More information available from US FCC via Universal Licensing System and Coast Guard Vessel Documentation Center.

Last reported at 2017-Feb-23 22:33 UTC. Time now 2017-Feb-25 15:55 UTC.
Position N 37°58' W 121°22'.

MMSI: 367373280.

Date/timePositionNaut miles runAvg speedWind from/ knotsBaromVisibWave heightAir tempDewpointWater temp
2017-Feb-23 22:33N 37°58' W 121°22'2 1.8
2017-Feb-23 21:33N 37°57' W 121°20'2 1.8
2017-Feb-23 20:33N 37°58' W 121°22'0 0.0
2017-Feb-23 19:33N 37°58' W 121°22'0 0.0
2017-Feb-23 18:33N 37°58' W 121°22'0 0.0
2017-Feb-23 17:33N 37°58' W 121°22'2 0.1
2017-Feb-22 19:34N 37°57' W 121°20'2 2.4
2017-Feb-22 18:34N 37°58' W 121°23'1 0.9
2017-Feb-22 17:34N 37°58' W 121°22'  
2017-Feb-19 16:11N 37°58' W 121°22'0 0.7
2017-Feb-19 15:33N 37°57' W 121°21'1 1.1
2017-Feb-19 14:33N 37°57' W 121°20'2 1.5
2017-Feb-19 13:33N 37°58' W 121°22'  
2017-Feb-17 07:10N 37°58' W 121°22'1 2.2
2017-Feb-17 06:33N 37°57' W 121°20'1 0.7
2017-Feb-17 05:33N 37°57' W 121°21'0 0.3
2017-Feb-17 04:33N 37°57' W 121°21'1 0.6
2017-Feb-17 03:33N 37°58' W 121°22'  
Track history (hours):
 
Tides and Currents Weather Stations Pressure Air Temp Water Temp Dewpoint Dewpoint Depression Visibility Wind Speed Wind Dir Waves Ship Positions

Marin Sunshine

Owner: Marine Express, alameda, CA. More information available from US FCC via Universal Licensing System and Coast Guard Vessel Documentation Center.

Last reported at 2017-Feb-23 22:33 UTC. Time now 2017-Feb-25 15:55 UTC.
Position N 37°58' W 121°22'.

MMSI: 367373280.

Date/timePositionNaut miles runAvg speedWind from/ knotsBaromVisibWave heightAir tempDewpointWater temp
2017-Feb-23 22:33N 37°58' W 121°22'2 1.8
2017-Feb-23 21:33N 37°57' W 121°20'2 1.8
2017-Feb-23 20:33N 37°58' W 121°22'0 0.0
2017-Feb-23 19:33N 37°58' W 121°22'0 0.0
2017-Feb-23 18:33N 37°58' W 121°22'0 0.0
2017-Feb-23 17:33N 37°58' W 121°22'2 0.1
2017-Feb-22 19:34N 37°57' W 121°20'2 2.4
2017-Feb-22 18:34N 37°58' W 121°23'1 0.9
2017-Feb-22 17:34N 37°58' W 121°22'  
2017-Feb-19 16:11N 37°58' W 121°22'0 0.7
2017-Feb-19 15:33N 37°57' W 121°21'1 1.1
2017-Feb-19 14:33N 37°57' W 121°20'2 1.5
2017-Feb-19 13:33N 37°58' W 121°22'  
2017-Feb-17 07:10N 37°58' W 121°22'1 2.2
2017-Feb-17 06:33N 37°57' W 121°20'1 0.7
2017-Feb-17 05:33N 37°57' W 121°21'0 0.3
2017-Feb-17 04:33N 37°57' W 121°21'1 0.6
2017-Feb-17 03:33N 37°58' W 121°22'  

Dump ship's entire track history